Flight Track Log - Related Links

Times and Time Zones

All times are in EDT time to prevent confusion due to time zone crossing. See the DAL2229 flight status page for this flight to view local times or setup timezone preferences in your user account.

Time Position Orientation Groundspeed Altitude Reporting Facility
EDT Latitude Longitude Course Direction KTS MPH feet Rate Location/Type
Mon 08:22:34 PM 42.1967 -83.3917 212° Southwest 167 192 1,300  Level Cleveland Center
Mon 08:24:18 PM 42.1028 -83.4714 208° Southwest 272 313 5,900 3,231 Climbing Cleveland Center
Mon 08:25:23 PM 42.0328 -83.5214 208° Southwest 275 316 10,400 3,264 Climbing Cleveland Center
Mon 08:26:23 PM 41.9669 -83.5686 210° Southwest 293 337 12,700 2,550 Climbing Cleveland Center
Mon 08:27:23 PM 41.8903 -83.6292 209° Southwest 316 364 15,500 2,950 Climbing Cleveland Center
Mon 08:28:23 PM 41.8094 -83.6894 210° Southwest 329 379 18,600 2,350 Climbing Cleveland Center
Mon 08:29:23 PM 41.7156 -83.7628 210° Southwest 350 403 20,200 1,800 Climbing Cleveland Center
Mon 08:30:23 PM 41.6197 -83.8358 230° Southwest 382 440 22,200 2,000 Climbing Cleveland Center
Mon 08:31:23 PM 41.5478 -83.9517 239° Southwest 391 450 24,200 1,688 Climbing Cleveland Center
Mon 08:33:35 PM 41.4289 -84.2169 240° Southwest 428 493 27,600 1,690 Climbing Cleveland Center
Mon 08:34:56 PM 41.3339 -84.4350 238° Southwest 414 476 30,200 1,647 Climbing Chicago Center
Mon 08:36:08 PM 41.2689 -84.5753 238° Southwest 426 490 31,800 1,545 Climbing Chicago Center
Mon 08:37:08 PM 41.2036 -84.7128 239° Southwest 426 490 33,600 1,150 Climbing Chicago Center
Mon 08:38:08 PM 41.1403 -84.8525 221° Southwest 426 490 34,100 1,033 Climbing Chicago Center
Mon 08:40:08 PM 40.9828 -85.0339 195° South 460 529 36,700 992 Climbing Chicago Center
Mon 08:42:04 PM 40.7556 -85.1158 196° South 398 458 38,000 443 Climbing Indianapolis Center
Mon 08:43:04 PM 40.6467 -85.1572 194° South 409 471 38,000  Level Indianapolis Center
Mon 08:44:04 PM 40.5314 -85.1956 195° South 419 482 38,000 750 Level Indianapolis Center
Mon 08:45:04 PM 40.4247 -85.2339 195° South 419 482 39,500 1,000 Climbing Indianapolis Center
Mon 08:46:04 PM 40.3178 -85.2722 195° South 409 471 40,000 250 Climbing Indianapolis Center
Mon 08:47:04 PM 40.2111 -85.3103 195° South 404 465 40,000  Level Indianapolis Center
Mon 08:48:04 PM 40.1125 -85.3458 195° South 409 471 40,000  Level Indianapolis Center
Mon 08:49:04 PM 40.0036 -85.3836 195° South 415 478 40,000  Level Indianapolis Center
Mon 08:50:04 PM 39.8925 -85.4214 195° South 415 478 40,000  Level Indianapolis Center
Mon 08:51:04 PM 39.7919 -85.4564 196° South 420 483 40,000  Level Indianapolis Center
Mon 08:52:04 PM 39.6722 -85.5019 195° South 420 483 40,000  Level Indianapolis Center
Mon 08:53:04 PM 39.5486 -85.5442 195° South 420 483 40,000  Level Indianapolis Center
Mon 08:54:04 PM 39.4394 -85.5814 196° South 415 478 40,000  Level Indianapolis Center
Mon 08:55:04 PM 39.3283 -85.6214 195° South 421 484 40,000 350 Level Indianapolis Center
Mon 08:56:04 PM 39.2169 -85.6608 192° South 416 479 40,700 500 Climbing Indianapolis Center
Mon 08:57:04 PM 39.1039 -85.6925 171° South 421 484 41,000 150 Climbing Indianapolis Center
Mon 08:58:04 PM 38.9833 -85.6675 169° South 422 486 41,000  Level Indianapolis Center
Mon 08:59:04 PM 38.8608 -85.6372 170° South 445 512 41,000  Level Indianapolis Center
Mon 09:00:04 PM 38.7550 -85.6128 169° South 445 512 41,000  Level Indianapolis Center
Mon 09:01:04 PM 38.6242 -85.5800 169° South 437 503 41,000  Level Indianapolis Center
Mon 09:02:04 PM 38.4975 -85.5472 169° South 437 503 41,000  Level Indianapolis Center
Mon 09:03:04 PM 38.3769 -85.5175 170° South 447 514 41,000  Level Indianapolis Center
Mon 09:04:04 PM 38.2731 -85.4936 169° South 453 521 41,000  Level Indianapolis Center
Mon 09:05:04 PM 38.1381 -85.4608 170° South 453 521 41,000  Level Indianapolis Center
Mon 09:06:04 PM 38.0133 -85.4339 168° South 458 527 41,000  Level Indianapolis Center
Mon 09:07:04 PM 37.8886 -85.4017 169° South 458 527 41,000  Level Indianapolis Center
Mon 09:08:04 PM 37.7558 -85.3694 171° South 458 527 41,000  Level Indianapolis Center
Mon 09:09:04 PM 37.6308 -85.3431 169° South 458 527 41,000  Level Indianapolis Center
Mon 09:10:04 PM 37.5083 -85.3139 169° South 458 527 41,000  Level Indianapolis Center
Mon 09:11:04 PM 37.3856 -85.2847 169° South 453 521 41,000  Level Indianapolis Center
Mon 09:12:04 PM 37.2608 -85.2533 169° South 453 521 41,000  Level Indianapolis Center
Mon 09:13:04 PM 37.1403 -85.2244 171° South 453 521 41,000  Level Indianapolis Center
Mon 09:14:04 PM 37.0136 -85.1983 169° South 447 514 41,000  Level Indianapolis Center
Mon 09:15:53 PM 36.7978 -85.1483 169° South 466 536 41,000  Level Atlanta Center
Mon 09:16:53 PM 36.6731 -85.1181 169° South 466 536 41,000  Level Atlanta Center
Mon 09:17:53 PM 36.5461 -85.0878 170° South 466 536 41,000  Level Atlanta Center
Mon 09:18:53 PM 36.4233 -85.0606 169° South 466 536 41,000  Level Atlanta Center
Mon 09:19:53 PM 36.2983 -85.0306 169° South 466 536 41,000  Level Atlanta Center
Mon 09:21:05 PM 36.1483 -84.9953 170° South 466 536 41,000  Level Atlanta Center
Mon 09:22:05 PM 36.0256 -84.9681 170° South 466 536 41,000  Level Atlanta Center
Mon 09:23:05 PM 35.8819 -84.9358 170° South 472 543 41,000  Level Atlanta Center
Mon 09:24:05 PM 35.7611 -84.9089 169° South 465 535 41,000  Level Atlanta Center
Mon 09:25:05 PM 35.6486 -84.8822 170° South 469 540 41,000  Level Atlanta Center
Mon 09:26:05 PM 35.5236 -84.8553 169° South 469 540 41,000  Level Atlanta Center
Mon 09:27:05 PM 35.4008 -84.8261 169° South 464 534 41,000  Level Atlanta Center
Mon 09:28:05 PM 35.2736 -84.7969 170° South 464 534 41,000  Level Atlanta Center
Mon 09:29:05 PM 35.1486 -84.7703 169° South 464 534 41,000  Level Atlanta Center
Mon 09:30:05 PM 35.0214 -84.7414 170° South 464 534 41,000  Level Atlanta Center
Mon 09:31:05 PM 34.8922 -84.7150 169° South 464 534 41,000  Level Atlanta Center
Mon 09:32:05 PM 34.7672 -84.6861 165° South 464 534 41,000  Level Atlanta Center
Mon 09:33:05 PM 34.6297 -84.6422 163° South 464 534 41,000  Level Atlanta Center
Mon 09:34:05 PM 34.5006 -84.5933 163° South 468 539 41,000  Level Atlanta Center
Mon 09:35:05 PM 34.3756 -84.5472 163° South 480 552 41,000  Level Atlanta Center
Mon 09:36:17 PM 34.2483 -84.5011 164° South 480 552 41,000  Level Atlanta Center
Mon 09:37:17 PM 34.1044 -84.4528 159° South 487 560 41,000  Level Atlanta Center
Mon 09:38:17 PM 33.9817 -84.3969 158° South 487 560 41,000  Level Atlanta Center
Mon 09:39:17 PM 33.8564 -84.3364 156° South 487 560 41,000  Level Atlanta Center
Mon 09:40:17 PM 33.7336 -84.2711 157° South 480 552 41,000  Level Atlanta Center
Mon 09:41:17 PM 33.6083 -84.2083 156° South 480 552 41,000  Level Atlanta Center
Mon 09:42:17 PM 33.4853 -84.1433 157° South 486 559 41,000  Level Atlanta Center
Mon 09:45:29 PM 33.0969 -83.9422 164° South 474 545 41,000  Level Atlanta Center
Mon 09:51:41 PM 32.2950 -83.6728 167° South 484 557 41,000  Level Atlanta Center
Mon 09:56:22 PM 31.6744 -83.5053 169° South 489 563 41,000  Level Jacksonville Center
Mon 09:57:22 PM 31.5431 -83.4753 167° South 489 563 41,000  Level Jacksonville Center
Mon 09:58:22 PM 31.4117 -83.4403 168° South 483 556 41,000  Level Jacksonville Center
Mon 09:59:22 PM 31.2822 -83.4081 168° South 483 556 41,000  Level Jacksonville Center
Mon 10:00:22 PM 31.1531 -83.3756 167° South 483 556 41,000  Level Jacksonville Center
Mon 10:01:22 PM 31.0217 -83.3411 168° South 483 556 41,000  Level Jacksonville Center
Mon 10:02:22 PM 30.8922 -83.3089 167° South 483 556 41,000  Level Jacksonville Center
Mon 10:03:22 PM 30.7817 -83.2794 158° South 483 556 41,000 -50 Level Jacksonville Center
Mon 10:04:22 PM 30.6564 -83.2211 156° South 472 543 40,900  Descending Jacksonville Center
Mon 10:05:22 PM 30.5356 -83.1578 156° South 477 549 41,000 50 Climbing Jacksonville Center
Mon 10:06:22 PM 30.4125 -83.0950 158° South 477 549 41,000 -50 Level Jacksonville Center
Mon 10:07:22 PM 30.2914 -83.0369 171° South 477 549 40,900 -50 Descending Jacksonville Center
Mon 10:08:22 PM 30.1619 -83.0128 174° South 472 543 40,900 50 Level Jacksonville Center
Mon 10:09:22 PM 30.0325 -82.9981 175° South 467 537 41,000  Climbing Jacksonville Center
Mon 10:10:22 PM 29.8947 -82.9836 173° South 482 555 40,900  Descending Jacksonville Center
Mon 10:11:22 PM 29.7675 -82.9667 173° South 482 555 41,000  Climbing Jacksonville Center
Mon 10:12:22 PM 29.6381 -82.9475 175° South 476 548 40,900  Descending Jacksonville Center
Mon 10:13:22 PM 29.5067 -82.9331 173° South 476 548 41,000 50 Climbing Jacksonville Center
Mon 10:14:22 PM 29.3625 -82.9139 175° South 481 554 41,000 -50 Level Jacksonville Center
Mon 10:15:22 PM 29.2311 -82.8997 173° South 481 554 40,900  Descending Jacksonville Center
Mon 10:16:22 PM 29.1036 -82.8831 174° South 481 554 41,000  Climbing Jacksonville Center
Mon 10:17:22 PM 28.9722 -82.8664 174° South 481 554 40,900  Descending Jacksonville Center
Mon 10:18:22 PM 28.8406 -82.8500 174° South 481 554 41,000 50 Climbing Jacksonville Center
Mon 10:19:22 PM 28.7156 -82.8358 174° South 475 547 41,000  Level Jacksonville Center
Mon 10:22:24 PM 28.3283 -82.7897 175° South 468 539 41,000 -25 Level Miami Center
Mon 10:23:25 PM 28.1994 -82.7758 174° South 475 547 40,900 -50 Descending Miami Center
Mon 10:24:25 PM 28.0708 -82.7597 168° South 470 541 40,900  Level Miami Center
Mon 10:25:27 PM 27.9450 -82.7297 149° Southeast 470 541 40,900 50 Level Miami Center
Mon 10:26:25 PM 27.8314 -82.6511 145° Southeast 457 526 41,000 51 Climbing Miami Center
Mon 10:27:25 PM 27.7261 -82.5683 147° Southeast 451 519 41,000  Level Miami Center
Mon 10:28:27 PM 27.6147 -82.4856 145° Southeast 472 543 41,000 -100 Level Miami Center
Mon 10:29:25 PM 27.5175 -82.4081 145° Southeast 490 564 40,800 -559 Descending Miami Center
Mon 10:30:25 PM 27.4061 -82.3208 146° Southeast 479 551 39,900 -950 Descending Miami Center
Mon 10:31:25 PM 27.2883 -82.2314 145° Southeast 461 531 38,900 -950 Descending Miami Center
Mon 10:32:25 PM 27.1789 -82.1444 146° Southeast 472 543 38,000 -885 Descending Miami Center
Mon 10:33:27 PM 27.0692 -82.0603 146° Southeast 482 555 37,100 -950 Descending Miami Center
Mon 10:34:25 PM 26.9694 -81.9858 146° Southeast 477 549 36,100 -950 Descending Miami Center
Mon 10:35:27 PM 26.8597 -81.9019 146° Southeast 477 549 35,200 -950 Descending Miami Center
Mon 10:36:25 PM 26.7500 -81.8181 146° Southeast 477 549 34,200 -1,881 Descending Miami Center
Mon 10:37:25 PM 26.6442 -81.7394 147° Southeast 477 549 31,500 -2,826 Descending Miami Center
Mon 10:38:26 PM 26.5361 -81.6606 142° Southeast 477 549 28,500 -2,902 Descending Miami Center
Mon 10:39:27 PM 26.4325 -81.5706 135° Southeast 468 539 25,600 -2,874 Descending Miami Center
Mon 10:40:25 PM 26.3439 -81.4722 135° Southeast 463 533 22,800 -2,924 Descending Miami Center
Mon 10:41:26 PM 26.2550 -81.3736 134° Southeast 452 520 19,800 -2,777 Descending Miami Center
Mon 10:42:26 PM 26.1722 -81.2781 140° Southeast 439 505 17,200 -2,447 Descending Miami Center
Mon 10:43:09 PM 26.1114 -81.2203 133° Southeast 415 478 15,600 -2,423 Descending Miami Center
Mon 10:44:10 PM 26.0306 -81.1247 136° Southeast 393 452 13,000 -2,579 Descending Miami Center
Mon 10:45:03 PM 25.9619 -81.0508 128° Southeast 380 437 10,700 -1,579 Descending Miami Center
Mon 10:46:04 PM 25.8994 -80.9631 106° East 333 383 10,000 -878 Descending Miami Center
Mon 10:47:06 PM 25.8769 -80.8769 102° East 295 339 8,900 -1,143 Descending Miami Center
Mon 10:48:10 PM 25.8586 -80.7842 117° Southeast 283 326 7,600 -1,381 Descending Miami Center
Mon 10:49:12 PM 25.8231 -80.7067 119° Southeast 262 302 6,000 -1,610 Descending Miami Center
Mon 10:50:13 PM 25.7872 -80.6342 88° East 266 306 4,300 -1,263 Descending Miami Center
Mon 10:51:25 PM 25.7897 -80.5350 87° East 250 288 3,200 -632 Descending Miami Center
Mon 10:52:26 PM 25.7936 -80.4636 85° East 238 274 2,900 -661 Descending Miami Center
Mon 10:53:14 PM 25.7969 -80.4175 88° East 209 241 2,000 -1,036 Descending Miami Center
Mon 10:54:16 PM 25.7983 -80.3597 89° East 172 198 1,000 -884 Descending Miami Center
Mon 10:55:23 PM 25.7994 -80.3067 185° South 148 170 100 -806 Descending Miami Center
Mon 11:02:32 PM 24.9424 -80.3923 North  Level FlightAware Approximate
Mon 11:03:32 PM 25.0622 -80.3804 North  Level FlightAware Approximate
Mon 11:04:32 PM 25.1821 -80.3685 North  Level FlightAware Approximate
Mon 11:05:32 PM 25.3020 -80.3565 North  Level FlightAware Approximate

Login

Don't have an account? Register now (free) for customized features, flight alerts, and more!